sensor_id;sensor_type;location;lat;lon;timestamp;P1;durP1;ratioP1;P2;durP2;ratioP2
84687;SDS011;74908;42.040;21.322;2024-03-06T00:01:42;15.50;;;7.43;;
84687;SDS011;74908;42.040;21.322;2024-03-06T00:04:08;13.07;;;7.35;;
84687;SDS011;74908;42.040;21.322;2024-03-06T00:06:34;15.38;;;6.65;;
84687;SDS011;74908;42.040;21.322;2024-03-06T00:09:01;15.65;;;7.63;;
84687;SDS011;74908;42.040;21.322;2024-03-06T00:11:28;12.70;;;6.82;;
84687;SDS011;74908;42.040;21.322;2024-03-06T00:13:54;16.70;;;7.38;;
84687;SDS011;74908;42.040;21.322;2024-03-06T00:16:20;19.80;;;8.60;;
84687;SDS011;74908;42.040;21.322;2024-03-06T00:18:46;20.30;;;8.40;;
84687;SDS011;74908;42.040;21.322;2024-03-06T00:21:13;16.45;;;7.72;;
84687;SDS011;74908;42.040;21.322;2024-03-06T00:23:40;14.07;;;7.95;;
84687;SDS011;74908;42.040;21.322;2024-03-06T00:26:06;17.50;;;9.13;;
84687;SDS011;74908;42.040;21.322;2024-03-06T00:28:32;17.83;;;8.73;;
84687;SDS011;74908;42.040;21.322;2024-03-06T00:30:58;17.45;;;7.78;;
84687;SDS011;74908;42.040;21.322;2024-03-06T00:33:25;18.05;;;8.20;;
84687;SDS011;74908;42.040;21.322;2024-03-06T00:35:51;13.63;;;7.85;;
84687;SDS011;74908;42.040;21.322;2024-03-06T00:38:17;12.55;;;7.28;;
84687;SDS011;74908;42.040;21.322;2024-03-06T00:40:43;13.65;;;6.97;;
84687;SDS011;74908;42.040;21.322;2024-03-06T00:43:09;18.02;;;8.55;;
84687;SDS011;74908;42.040;21.322;2024-03-06T00:45:35;16.75;;;8.48;;
84687;SDS011;74908;42.040;21.322;2024-03-06T00:48:01;17.02;;;8.52;;
84687;SDS011;74908;42.040;21.322;2024-03-06T00:50:28;17.30;;;8.40;;
84687;SDS011;74908;42.040;21.322;2024-03-06T00:52:55;16.13;;;8.07;;
84687;SDS011;74908;42.040;21.322;2024-03-06T00:55:21;17.77;;;8.27;;
84687;SDS011;74908;42.040;21.322;2024-03-06T00:57:47;18.52;;;9.65;;
84687;SDS011;74908;42.040;21.322;2024-03-06T01:00:13;18.63;;;8.68;;
84687;SDS011;74908;42.040;21.322;2024-03-06T01:02:41;18.85;;;9.93;;
84687;SDS011;74908;42.040;21.322;2024-03-06T01:05:07;23.73;;;10.77;;
84687;SDS011;74908;42.040;21.322;2024-03-06T01:07:34;22.88;;;11.18;;
84687;SDS011;74908;42.040;21.322;2024-03-06T01:10:01;21.00;;;10.18;;
84687;SDS011;74908;42.040;21.322;2024-03-06T01:12:27;22.75;;;10.63;;
84687;SDS011;74908;42.040;21.322;2024-03-06T01:14:54;18.27;;;9.30;;
84687;SDS011;74908;42.040;21.322;2024-03-06T01:17:20;20.75;;;9.95;;
84687;SDS011;74908;42.040;21.322;2024-03-06T01:19:46;18.70;;;9.32;;
84687;SDS011;74908;42.040;21.322;2024-03-06T01:22:12;21.23;;;10.52;;
84687;SDS011;74908;42.040;21.322;2024-03-06T01:24:38;19.33;;;9.35;;
84687;SDS011;74908;42.040;21.322;2024-03-06T01:27:05;21.42;;;10.98;;
84687;SDS011;74908;42.040;21.322;2024-03-06T01:29:31;19.95;;;10.88;;
84687;SDS011;74908;42.040;21.322;2024-03-06T01:31:58;24.90;;;11.55;;
84687;SDS011;74908;42.040;21.322;2024-03-06T01:34:24;26.92;;;11.35;;
84687;SDS011;74908;42.040;21.322;2024-03-06T01:36:51;25.88;;;10.32;;
84687;SDS011;74908;42.040;21.322;2024-03-06T01:39:17;24.20;;;10.30;;
84687;SDS011;74908;42.040;21.322;2024-03-06T01:41:47;19.98;;;9.85;;
84687;SDS011;74908;42.040;21.322;2024-03-06T01:44:16;18.77;;;9.23;;
84687;SDS011;74908;42.040;21.322;2024-03-06T01:46:43;16.23;;;8.48;;
84687;SDS011;74908;42.040;21.322;2024-03-06T01:49:12;24.83;;;9.77;;
84687;SDS011;74908;42.040;21.322;2024-03-06T01:51:39;17.63;;;8.82;;
84687;SDS011;74908;42.040;21.322;2024-03-06T01:54:06;16.27;;;8.45;;
84687;SDS011;74908;42.040;21.322;2024-03-06T01:56:32;21.63;;;10.05;;
84687;SDS011;74908;42.040;21.322;2024-03-06T01:58:59;18.45;;;10.77;;
84687;SDS011;74908;42.040;21.322;2024-03-06T02:01:27;25.20;;;11.10;;
84687;SDS011;74908;42.040;21.322;2024-03-06T02:03:53;23.70;;;10.88;;
84687;SDS011;74908;42.040;21.322;2024-03-06T02:06:19;24.08;;;10.80;;
84687;SDS011;74908;42.040;21.322;2024-03-06T02:08:46;22.35;;;10.88;;
84687;SDS011;74908;42.040;21.322;2024-03-06T02:11:12;18.52;;;9.55;;
84687;SDS011;74908;42.040;21.322;2024-03-06T02:13:41;21.02;;;9.35;;
84687;SDS011;74908;42.040;21.322;2024-03-06T02:16:09;20.58;;;10.57;;
84687;SDS011;74908;42.040;21.322;2024-03-06T02:18:35;28.33;;;12.30;;
84687;SDS011;74908;42.040;21.322;2024-03-06T02:21:02;21.15;;;9.88;;
84687;SDS011;74908;42.040;21.322;2024-03-06T02:23:29;19.58;;;9.60;;
84687;SDS011;74908;42.040;21.322;2024-03-06T02:25:56;22.27;;;10.32;;
84687;SDS011;74908;42.040;21.322;2024-03-06T02:28:22;23.33;;;9.50;;
84687;SDS011;74908;42.040;21.322;2024-03-06T02:30:51;18.33;;;9.70;;
84687;SDS011;74908;42.040;21.322;2024-03-06T02:33:17;22.65;;;11.18;;
84687;SDS011;74908;42.040;21.322;2024-03-06T02:35:44;20.90;;;9.57;;
84687;SDS011;74908;42.040;21.322;2024-03-06T02:38:11;20.02;;;11.27;;
84687;SDS011;74908;42.040;21.322;2024-03-06T02:40:37;22.92;;;9.90;;
84687;SDS011;74908;42.040;21.322;2024-03-06T02:43:03;23.27;;;11.02;;
84687;SDS011;74908;42.040;21.322;2024-03-06T02:45:30;22.27;;;10.48;;
84687;SDS011;74908;42.040;21.322;2024-03-06T02:47:56;23.63;;;10.68;;
84687;SDS011;74908;42.040;21.322;2024-03-06T02:50:22;22.88;;;10.27;;
84687;SDS011;74908;42.040;21.322;2024-03-06T02:52:48;24.85;;;10.32;;
84687;SDS011;74908;42.040;21.322;2024-03-06T02:55:16;23.65;;;11.57;;
84687;SDS011;74908;42.040;21.322;2024-03-06T02:57:44;22.58;;;11.95;;
84687;SDS011;74908;42.040;21.322;2024-03-06T03:00:10;20.50;;;10.65;;
84687;SDS011;74908;42.040;21.322;2024-03-06T03:02:38;19.92;;;10.88;;
84687;SDS011;74908;42.040;21.322;2024-03-06T03:05:05;18.75;;;8.10;;
84687;SDS011;74908;42.040;21.322;2024-03-06T03:07:31;21.02;;;10.45;;
84687;SDS011;74908;42.040;21.322;2024-03-06T03:09:57;20.73;;;9.30;;
84687;SDS011;74908;42.040;21.322;2024-03-06T03:12:23;19.20;;;10.55;;
84687;SDS011;74908;42.040;21.322;2024-03-06T03:14:50;25.27;;;10.82;;
84687;SDS011;74908;42.040;21.322;2024-03-06T03:17:17;22.80;;;9.82;;
84687;SDS011;74908;42.040;21.322;2024-03-06T03:19:44;24.73;;;11.27;;
84687;SDS011;74908;42.040;21.322;2024-03-06T03:22:10;24.85;;;10.45;;
84687;SDS011;74908;42.040;21.322;2024-03-06T03:24:38;21.42;;;11.27;;
84687;SDS011;74908;42.040;21.322;2024-03-06T03:27:05;23.52;;;11.82;;
84687;SDS011;74908;42.040;21.322;2024-03-06T03:29:31;26.45;;;10.73;;
84687;SDS011;74908;42.040;21.322;2024-03-06T03:31:58;20.15;;;10.48;;
84687;SDS011;74908;42.040;21.322;2024-03-06T03:34:24;22.02;;;10.55;;
84687;SDS011;74908;42.040;21.322;2024-03-06T03:36:50;21.90;;;10.30;;
84687;SDS011;74908;42.040;21.322;2024-03-06T03:39:16;20.13;;;10.80;;
84687;SDS011;74908;42.040;21.322;2024-03-06T03:41:46;23.58;;;12.00;;
84687;SDS011;74908;42.040;21.322;2024-03-06T03:44:16;21.52;;;10.05;;
84687;SDS011;74908;42.040;21.322;2024-03-06T03:49:09;20.92;;;10.75;;
84687;SDS011;74908;42.040;21.322;2024-03-06T03:51:36;21.27;;;10.98;;
84687;SDS011;74908;42.040;21.322;2024-03-06T03:54:03;22.00;;;9.85;;
84687;SDS011;74908;42.040;21.322;2024-03-06T03:56:29;23.17;;;10.60;;
84687;SDS011;74908;42.040;21.322;2024-03-06T03:58:56;25.83;;;11.07;;
84687;SDS011;74908;42.040;21.322;2024-03-06T04:01:22;24.75;;;10.18;;
84687;SDS011;74908;42.040;21.322;2024-03-06T04:03:49;19.40;;;10.43;;
84687;SDS011;74908;42.040;21.322;2024-03-06T04:06:16;22.23;;;10.55;;
84687;SDS011;74908;42.040;21.322;2024-03-06T04:08:42;22.35;;;9.85;;
84687;SDS011;74908;42.040;21.322;2024-03-06T04:11:08;19.23;;;9.73;;
84687;SDS011;74908;42.040;21.322;2024-03-06T04:13:35;23.95;;;10.38;;
84687;SDS011;74908;42.040;21.322;2024-03-06T04:16:01;20.05;;;9.45;;
84687;SDS011;74908;42.040;21.322;2024-03-06T04:18:28;19.80;;;8.45;;
84687;SDS011;74908;42.040;21.322;2024-03-06T04:20:59;15.77;;;8.07;;
84687;SDS011;74908;42.040;21.322;2024-03-06T04:23:25;21.00;;;8.68;;
84687;SDS011;74908;42.040;21.322;2024-03-06T04:25:52;19.83;;;10.13;;
84687;SDS011;74908;42.040;21.322;2024-03-06T04:28:18;23.05;;;9.52;;
84687;SDS011;74908;42.040;21.322;2024-03-06T04:30:44;20.95;;;8.75;;
84687;SDS011;74908;42.040;21.322;2024-03-06T04:33:10;18.45;;;9.48;;
84687;SDS011;74908;42.040;21.322;2024-03-06T04:35:39;16.55;;;8.38;;
84687;SDS011;74908;42.040;21.322;2024-03-06T04:38:05;19.67;;;9.50;;
84687;SDS011;74908;42.040;21.322;2024-03-06T04:40:31;15.27;;;8.25;;
84687;SDS011;74908;42.040;21.322;2024-03-06T04:42:57;19.50;;;8.90;;
84687;SDS011;74908;42.040;21.322;2024-03-06T04:45:23;17.83;;;9.30;;
84687;SDS011;74908;42.040;21.322;2024-03-06T04:47:50;18.80;;;9.43;;
84687;SDS011;74908;42.040;21.322;2024-03-06T04:50:16;13.77;;;8.00;;
84687;SDS011;74908;42.040;21.322;2024-03-06T04:52:43;18.02;;;8.45;;
84687;SDS011;74908;42.040;21.322;2024-03-06T04:55:12;22.77;;;10.52;;
84687;SDS011;74908;42.040;21.322;2024-03-06T04:57:42;17.45;;;8.57;;
84687;SDS011;74908;42.040;21.322;2024-03-06T05:00:09;15.32;;;8.25;;
84687;SDS011;74908;42.040;21.322;2024-03-06T05:02:35;15.48;;;8.52;;
84687;SDS011;74908;42.040;21.322;2024-03-06T05:05:02;12.43;;;8.02;;
84687;SDS011;74908;42.040;21.322;2024-03-06T05:07:29;18.05;;;7.97;;
84687;SDS011;74908;42.040;21.322;2024-03-06T05:09:56;21.13;;;9.38;;
84687;SDS011;74908;42.040;21.322;2024-03-06T05:12:23;20.23;;;8.50;;
84687;SDS011;74908;42.040;21.322;2024-03-06T05:14:49;17.42;;;8.18;;
84687;SDS011;74908;42.040;21.322;2024-03-06T05:17:16;24.50;;;9.68;;
84687;SDS011;74908;42.040;21.322;2024-03-06T05:19:43;20.92;;;9.18;;
84687;SDS011;74908;42.040;21.322;2024-03-06T05:22:10;19.10;;;8.93;;
84687;SDS011;74908;42.040;21.322;2024-03-06T05:24:39;21.85;;;10.10;;
84687;SDS011;74908;42.040;21.322;2024-03-06T05:27:05;19.25;;;9.20;;
84687;SDS011;74908;42.040;21.322;2024-03-06T05:29:31;24.88;;;10.88;;
84687;SDS011;74908;42.040;21.322;2024-03-06T05:31:57;25.55;;;10.48;;
84687;SDS011;74908;42.040;21.322;2024-03-06T05:34:23;23.25;;;10.32;;
84687;SDS011;74908;42.040;21.322;2024-03-06T05:36:50;26.00;;;11.15;;
84687;SDS011;74908;42.040;21.322;2024-03-06T05:39:16;24.40;;;10.90;;
84687;SDS011;74908;42.040;21.322;2024-03-06T05:41:43;20.92;;;10.73;;
84687;SDS011;74908;42.040;21.322;2024-03-06T05:44:09;22.42;;;11.70;;
84687;SDS011;74908;42.040;21.322;2024-03-06T05:46:35;24.08;;;10.48;;
84687;SDS011;74908;42.040;21.322;2024-03-06T05:49:01;23.92;;;9.55;;
84687;SDS011;74908;42.040;21.322;2024-03-06T05:51:29;18.85;;;10.80;;
84687;SDS011;74908;42.040;21.322;2024-03-06T05:53:56;20.98;;;10.05;;
84687;SDS011;74908;42.040;21.322;2024-03-06T05:56:22;19.23;;;9.70;;
84687;SDS011;74908;42.040;21.322;2024-03-06T05:58:48;25.10;;;11.80;;
84687;SDS011;74908;42.040;21.322;2024-03-06T06:01:15;24.05;;;11.70;;
84687;SDS011;74908;42.040;21.322;2024-03-06T06:03:45;20.48;;;10.73;;
84687;SDS011;74908;42.040;21.322;2024-03-06T06:06:14;20.33;;;10.38;;
84687;SDS011;74908;42.040;21.322;2024-03-06T06:08:40;24.13;;;11.48;;
84687;SDS011;74908;42.040;21.322;2024-03-06T06:11:06;22.83;;;9.77;;
84687;SDS011;74908;42.040;21.322;2024-03-06T06:13:33;20.88;;;11.07;;
84687;SDS011;74908;42.040;21.322;2024-03-06T06:15:59;23.35;;;10.63;;
84687;SDS011;74908;42.040;21.322;2024-03-06T06:18:28;27.48;;;11.38;;
84687;SDS011;74908;42.040;21.322;2024-03-06T06:20:54;22.63;;;10.35;;
84687;SDS011;74908;42.040;21.322;2024-03-06T06:23:20;21.42;;;10.45;;
84687;SDS011;74908;42.040;21.322;2024-03-06T06:25:46;17.75;;;11.05;;
84687;SDS011;74908;42.040;21.322;2024-03-06T06:28:12;24.80;;;11.20;;
84687;SDS011;74908;42.040;21.322;2024-03-06T06:30:38;21.08;;;10.38;;
84687;SDS011;74908;42.040;21.322;2024-03-06T06:33:04;22.90;;;11.00;;
84687;SDS011;74908;42.040;21.322;2024-03-06T06:35:31;21.30;;;10.98;;
84687;SDS011;74908;42.040;21.322;2024-03-06T06:37:59;19.40;;;11.02;;
84687;SDS011;74908;42.040;21.322;2024-03-06T06:40:26;20.50;;;10.77;;
84687;SDS011;74908;42.040;21.322;2024-03-06T06:42:55;18.20;;;11.13;;
84687;SDS011;74908;42.040;21.322;2024-03-06T06:45:22;22.20;;;11.00;;
84687;SDS011;74908;42.040;21.322;2024-03-06T06:47:49;19.80;;;10.57;;
84687;SDS011;74908;42.040;21.322;2024-03-06T06:50:16;23.23;;;10.40;;
84687;SDS011;74908;42.040;21.322;2024-03-06T06:52:44;24.50;;;11.75;;
84687;SDS011;74908;42.040;21.322;2024-03-06T06:55:11;24.42;;;12.75;;
84687;SDS011;74908;42.040;21.322;2024-03-06T06:57:37;22.95;;;11.05;;
84687;SDS011;74908;42.040;21.322;2024-03-06T07:00:06;22.52;;;11.65;;
84687;SDS011;74908;42.040;21.322;2024-03-06T07:02:40;23.15;;;11.40;;
84687;SDS011;74908;42.040;21.322;2024-03-06T07:05:07;18.17;;;10.63;;
84687;SDS011;74908;42.040;21.322;2024-03-06T07:07:34;21.75;;;11.02;;
84687;SDS011;74908;42.040;21.322;2024-03-06T07:10:01;21.77;;;11.07;;
84687;SDS011;74908;42.040;21.322;2024-03-06T07:12:28;21.77;;;10.65;;
84687;SDS011;74908;42.040;21.322;2024-03-06T07:14:56;22.75;;;12.00;;
84687;SDS011;74908;42.040;21.322;2024-03-06T07:17:23;24.90;;;11.88;;
84687;SDS011;74908;42.040;21.322;2024-03-06T07:19:49;25.73;;;15.35;;
84687;SDS011;74908;42.040;21.322;2024-03-06T07:22:19;30.45;;;16.40;;
84687;SDS011;74908;42.040;21.322;2024-03-06T07:24:49;27.35;;;14.32;;
84687;SDS011;74908;42.040;21.322;2024-03-06T07:27:15;24.27;;;13.60;;
84687;SDS011;74908;42.040;21.322;2024-03-06T07:29:43;25.00;;;10.85;;
84687;SDS011;74908;42.040;21.322;2024-03-06T07:32:09;21.02;;;11.27;;
84687;SDS011;74908;42.040;21.322;2024-03-06T07:34:35;21.38;;;12.02;;
84687;SDS011;74908;42.040;21.322;2024-03-06T07:37:02;20.58;;;11.23;;
84687;SDS011;74908;42.040;21.322;2024-03-06T07:39:29;19.13;;;11.48;;
84687;SDS011;74908;42.040;21.322;2024-03-06T07:41:56;20.08;;;11.55;;
84687;SDS011;74908;42.040;21.322;2024-03-06T07:44:22;25.13;;;13.52;;
84687;SDS011;74908;42.040;21.322;2024-03-06T07:46:48;22.02;;;11.18;;
84687;SDS011;74908;42.040;21.322;2024-03-06T07:49:15;20.90;;;12.38;;
84687;SDS011;74908;42.040;21.322;2024-03-06T07:51:41;23.10;;;12.02;;
84687;SDS011;74908;42.040;21.322;2024-03-06T07:54:07;22.08;;;12.27;;
84687;SDS011;74908;42.040;21.322;2024-03-06T07:56:33;18.90;;;11.18;;
84687;SDS011;74908;42.040;21.322;2024-03-06T07:59:00;26.00;;;11.80;;
84687;SDS011;74908;42.040;21.322;2024-03-06T08:01:26;19.85;;;11.52;;
84687;SDS011;74908;42.040;21.322;2024-03-06T08:03:54;24.85;;;12.32;;
84687;SDS011;74908;42.040;21.322;2024-03-06T08:06:20;25.58;;;11.98;;
84687;SDS011;74908;42.040;21.322;2024-03-06T08:08:46;27.05;;;12.73;;
84687;SDS011;74908;42.040;21.322;2024-03-06T08:11:15;22.55;;;12.52;;
84687;SDS011;74908;42.040;21.322;2024-03-06T08:13:43;25.67;;;14.52;;
84687;SDS011;74908;42.040;21.322;2024-03-06T08:16:09;24.15;;;12.50;;
84687;SDS011;74908;42.040;21.322;2024-03-06T08:18:36;23.98;;;12.93;;
84687;SDS011;74908;42.040;21.322;2024-03-06T08:21:02;24.73;;;13.73;;
84687;SDS011;74908;42.040;21.322;2024-03-06T08:23:30;21.52;;;12.25;;
84687;SDS011;74908;42.040;21.322;2024-03-06T08:25:57;27.75;;;12.10;;
84687;SDS011;74908;42.040;21.322;2024-03-06T08:28:24;20.60;;;12.60;;
84687;SDS011;74908;42.040;21.322;2024-03-06T08:30:50;24.77;;;11.93;;
84687;SDS011;74908;42.040;21.322;2024-03-06T08:33:17;22.23;;;12.10;;
84687;SDS011;74908;42.040;21.322;2024-03-06T08:35:46;20.33;;;12.45;;
84687;SDS011;74908;42.040;21.322;2024-03-06T08:38:12;21.05;;;10.98;;
84687;SDS011;74908;42.040;21.322;2024-03-06T08:40:38;23.05;;;11.80;;
84687;SDS011;74908;42.040;21.322;2024-03-06T08:43:07;21.38;;;11.93;;
84687;SDS011;74908;42.040;21.322;2024-03-06T08:45:34;24.58;;;11.95;;
84687;SDS011;74908;42.040;21.322;2024-03-06T08:48:00;23.63;;;12.02;;
84687;SDS011;74908;42.040;21.322;2024-03-06T08:50:26;23.58;;;10.98;;
84687;SDS011;74908;42.040;21.322;2024-03-06T08:52:52;21.67;;;11.20;;
84687;SDS011;74908;42.040;21.322;2024-03-06T08:55:18;24.20;;;11.60;;
84687;SDS011;74908;42.040;21.322;2024-03-06T08:57:44;21.40;;;10.90;;
84687;SDS011;74908;42.040;21.322;2024-03-06T09:00:11;22.77;;;11.90;;
84687;SDS011;74908;42.040;21.322;2024-03-06T09:02:37;25.38;;;11.15;;
84687;SDS011;74908;42.040;21.322;2024-03-06T09:05:06;24.17;;;10.95;;
84687;SDS011;74908;42.040;21.322;2024-03-06T09:07:38;24.27;;;11.63;;
84687;SDS011;74908;42.040;21.322;2024-03-06T09:10:08;27.35;;;12.00;;
84687;SDS011;74908;42.040;21.322;2024-03-06T09:12:34;19.60;;;10.60;;
84687;SDS011;74908;42.040;21.322;2024-03-06T09:15:01;20.95;;;11.82;;
84687;SDS011;74908;42.040;21.322;2024-03-06T09:17:27;21.40;;;11.38;;
84687;SDS011;74908;42.040;21.322;2024-03-06T09:19:54;22.83;;;10.95;;
84687;SDS011;74908;42.040;21.322;2024-03-06T09:22:20;19.60;;;11.15;;
84687;SDS011;74908;42.040;21.322;2024-03-06T09:24:46;21.77;;;11.85;;
84687;SDS011;74908;42.040;21.322;2024-03-06T09:27:13;18.42;;;10.15;;
84687;SDS011;74908;42.040;21.322;2024-03-06T09:29:40;25.17;;;11.70;;
84687;SDS011;74908;42.040;21.322;2024-03-06T09:32:07;20.80;;;11.48;;
84687;SDS011;74908;42.040;21.322;2024-03-06T09:34:33;23.92;;;12.15;;
84687;SDS011;74908;42.040;21.322;2024-03-06T09:36:59;29.13;;;13.68;;
84687;SDS011;74908;42.040;21.322;2024-03-06T09:39:26;22.42;;;11.95;;
84687;SDS011;74908;42.040;21.322;2024-03-06T09:41:52;21.60;;;11.13;;
84687;SDS011;74908;42.040;21.322;2024-03-06T09:44:20;21.83;;;10.25;;
84687;SDS011;74908;42.040;21.322;2024-03-06T09:46:47;23.25;;;11.10;;
84687;SDS011;74908;42.040;21.322;2024-03-06T09:49:15;20.02;;;12.45;;
84687;SDS011;74908;42.040;21.322;2024-03-06T09:51:43;23.05;;;11.27;;
84687;SDS011;74908;42.040;21.322;2024-03-06T09:54:11;18.52;;;10.35;;
84687;SDS011;74908;42.040;21.322;2024-03-06T09:56:43;20.73;;;11.68;;
84687;SDS011;74908;42.040;21.322;2024-03-06T09:59:10;20.90;;;12.13;;
84687;SDS011;74908;42.040;21.322;2024-03-06T10:04:32;18.92;;;9.88;;
84687;SDS011;74908;42.040;21.322;2024-03-06T10:07:02;21.27;;;11.45;;
84687;SDS011;74908;42.040;21.322;2024-03-06T10:09:29;20.48;;;10.75;;
84687;SDS011;74908;42.040;21.322;2024-03-06T10:11:58;19.20;;;10.30;;
84687;SDS011;74908;42.040;21.322;2024-03-06T10:14:24;23.00;;;11.20;;
84687;SDS011;74908;42.040;21.322;2024-03-06T10:16:53;19.08;;;11.32;;
84687;SDS011;74908;42.040;21.322;2024-03-06T10:19:21;19.92;;;10.18;;
84687;SDS011;74908;42.040;21.322;2024-03-06T10:21:48;16.85;;;10.23;;
84687;SDS011;74908;42.040;21.322;2024-03-06T10:26:46;18.17;;;10.10;;
84687;SDS011;74908;42.040;21.322;2024-03-06T10:29:15;22.38;;;11.02;;
84687;SDS011;74908;42.040;21.322;2024-03-06T10:34:16;18.40;;;11.20;;
84687;SDS011;74908;42.040;21.322;2024-03-06T10:36:42;21.88;;;10.57;;
84687;SDS011;74908;42.040;21.322;2024-03-06T10:39:10;20.60;;;10.82;;
84687;SDS011;74908;42.040;21.322;2024-03-06T10:41:39;18.15;;;10.02;;
84687;SDS011;74908;42.040;21.322;2024-03-06T10:44:08;23.13;;;12.00;;
84687;SDS011;74908;42.040;21.322;2024-03-06T10:46:43;17.15;;;10.25;;
84687;SDS011;74908;42.040;21.322;2024-03-06T10:49:12;20.85;;;11.55;;
84687;SDS011;74908;42.040;21.322;2024-03-06T10:51:42;23.73;;;10.60;;
84687;SDS011;74908;42.040;21.322;2024-03-06T10:54:10;21.40;;;10.13;;
84687;SDS011;74908;42.040;21.322;2024-03-06T10:56:40;17.95;;;9.63;;
84687;SDS011;74908;42.040;21.322;2024-03-06T10:59:09;17.52;;;8.48;;
84687;SDS011;74908;42.040;21.322;2024-03-06T11:01:41;17.58;;;10.13;;
84687;SDS011;74908;42.040;21.322;2024-03-06T11:04:09;19.10;;;8.35;;
84687;SDS011;74908;42.040;21.322;2024-03-06T11:06:36;17.75;;;9.32;;
84687;SDS011;74908;42.040;21.322;2024-03-06T11:09:03;19.95;;;9.75;;
84687;SDS011;74908;42.040;21.322;2024-03-06T11:11:29;15.38;;;8.80;;
84687;SDS011;74908;42.040;21.322;2024-03-06T11:14:15;16.58;;;9.32;;
84687;SDS011;74908;42.040;21.322;2024-03-06T11:16:55;20.77;;;9.50;;
84687;SDS011;74908;42.040;21.322;2024-03-06T11:19:22;16.67;;;8.65;;
84687;SDS011;74908;42.040;21.322;2024-03-06T11:21:48;26.77;;;10.20;;
84687;SDS011;74908;42.040;21.322;2024-03-06T11:24:15;15.55;;;8.23;;
84687;SDS011;74908;42.040;21.322;2024-03-06T11:26:46;16.75;;;8.85;;
84687;SDS011;74908;42.040;21.322;2024-03-06T11:29:19;15.27;;;8.40;;
84687;SDS011;74908;42.040;21.322;2024-03-06T11:32:04;11.90;;;7.28;;
84687;SDS011;74908;42.040;21.322;2024-03-06T11:34:35;14.95;;;7.38;;
84687;SDS011;74908;42.040;21.322;2024-03-06T11:37:05;12.48;;;6.80;;
84687;SDS011;74908;42.040;21.322;2024-03-06T11:39:35;13.52;;;7.72;;
84687;SDS011;74908;42.040;21.322;2024-03-06T11:42:02;14.38;;;7.22;;
84687;SDS011;74908;42.040;21.322;2024-03-06T11:44:31;12.85;;;7.07;;
84687;SDS011;74908;42.040;21.322;2024-03-06T11:47:01;10.23;;;6.47;;
84687;SDS011;74908;42.040;21.322;2024-03-06T11:49:29;13.23;;;7.30;;
84687;SDS011;74908;42.040;21.322;2024-03-06T11:52:00;14.20;;;7.75;;
84687;SDS011;74908;42.040;21.322;2024-03-06T11:54:27;17.15;;;9.35;;
84687;SDS011;74908;42.040;21.322;2024-03-06T11:56:58;16.80;;;8.68;;
84687;SDS011;74908;42.040;21.322;2024-03-06T11:59:25;17.23;;;9.73;;
84687;SDS011;74908;42.040;21.322;2024-03-06T12:01:52;12.02;;;8.00;;
84687;SDS011;74908;42.040;21.322;2024-03-06T12:04:19;14.43;;;7.00;;
84687;SDS011;74908;42.040;21.322;2024-03-06T12:06:46;13.73;;;7.22;;
84687;SDS011;74908;42.040;21.322;2024-03-06T12:09:13;12.57;;;7.07;;
84687;SDS011;74908;42.040;21.322;2024-03-06T12:11:40;15.02;;;6.45;;
84687;SDS011;74908;42.040;21.322;2024-03-06T12:14:17;15.30;;;7.13;;
84687;SDS011;74908;42.040;21.322;2024-03-06T12:16:54;18.02;;;7.72;;
84687;SDS011;74908;42.040;21.322;2024-03-06T12:19:21;18.33;;;7.95;;
84687;SDS011;74908;42.040;21.322;2024-03-06T12:21:47;12.45;;;6.90;;
84687;SDS011;74908;42.040;21.322;2024-03-06T12:24:15;15.45;;;7.10;;
84687;SDS011;74908;42.040;21.322;2024-03-06T12:26:45;11.85;;;7.05;;
84687;SDS011;74908;42.040;21.322;2024-03-06T12:29:17;12.57;;;7.45;;
84687;SDS011;74908;42.040;21.322;2024-03-06T12:31:46;12.98;;;6.75;;
84687;SDS011;74908;42.040;21.322;2024-03-06T12:34:13;14.30;;;6.45;;
84687;SDS011;74908;42.040;21.322;2024-03-06T12:36:42;12.23;;;7.93;;
84687;SDS011;74908;42.040;21.322;2024-03-06T12:39:08;11.65;;;6.40;;
84687;SDS011;74908;42.040;21.322;2024-03-06T12:41:48;11.10;;;6.15;;
84687;SDS011;74908;42.040;21.322;2024-03-06T12:44:15;13.02;;;6.25;;
84687;SDS011;74908;42.040;21.322;2024-03-06T12:46:41;12.60;;;6.82;;
84687;SDS011;74908;42.040;21.322;2024-03-06T12:49:07;13.68;;;6.60;;
84687;SDS011;74908;42.040;21.322;2024-03-06T12:51:34;13.88;;;7.22;;
84687;SDS011;74908;42.040;21.322;2024-03-06T12:54:01;11.70;;;6.15;;
84687;SDS011;74908;42.040;21.322;2024-03-06T12:56:29;11.50;;;6.28;;
84687;SDS011;74908;42.040;21.322;2024-03-06T12:58:55;10.02;;;6.40;;
84687;SDS011;74908;42.040;21.322;2024-03-06T13:01:21;12.75;;;6.68;;
84687;SDS011;74908;42.040;21.322;2024-03-06T13:03:47;12.30;;;7.07;;
84687;SDS011;74908;42.040;21.322;2024-03-06T13:06:14;12.40;;;6.57;;
84687;SDS011;74908;42.040;21.322;2024-03-06T13:08:40;11.68;;;6.50;;
84687;SDS011;74908;42.040;21.322;2024-03-06T13:11:07;10.93;;;6.18;;
84687;SDS011;74908;42.040;21.322;2024-03-06T13:13:34;8.00;;;5.50;;
84687;SDS011;74908;42.040;21.322;2024-03-06T13:16:00;10.10;;;5.65;;
84687;SDS011;74908;42.040;21.322;2024-03-06T13:18:26;9.20;;;5.40;;
84687;SDS011;74908;42.040;21.322;2024-03-06T13:23:40;10.90;;;5.85;;
84687;SDS011;74908;42.040;21.322;2024-03-06T13:26:07;9.65;;;5.45;;
84687;SDS011;74908;42.040;21.322;2024-03-06T13:28:33;11.95;;;5.95;;
84687;SDS011;74908;42.040;21.322;2024-03-06T13:30:59;8.52;;;5.38;;
84687;SDS011;74908;42.040;21.322;2024-03-06T13:33:25;11.30;;;6.35;;
84687;SDS011;74908;42.040;21.322;2024-03-06T13:35:53;9.60;;;6.53;;
84687;SDS011;74908;42.040;21.322;2024-03-06T13:38:20;9.05;;;5.53;;
84687;SDS011;74908;42.040;21.322;2024-03-06T13:40:47;8.93;;;5.70;;
84687;SDS011;74908;42.040;21.322;2024-03-06T13:43:13;11.25;;;5.53;;
84687;SDS011;74908;42.040;21.322;2024-03-06T13:45:47;8.73;;;5.50;;
84687;SDS011;74908;42.040;21.322;2024-03-06T13:48:14;8.07;;;5.03;;
84687;SDS011;74908;42.040;21.322;2024-03-06T13:50:42;11.75;;;5.63;;
84687;SDS011;74908;42.040;21.322;2024-03-06T13:53:09;9.73;;;5.25;;
84687;SDS011;74908;42.040;21.322;2024-03-06T13:55:36;11.23;;;5.60;;
84687;SDS011;74908;42.040;21.322;2024-03-06T13:58:02;8.55;;;4.90;;
84687;SDS011;74908;42.040;21.322;2024-03-06T14:00:29;8.77;;;5.30;;
84687;SDS011;74908;42.040;21.322;2024-03-06T14:02:55;9.48;;;5.72;;
84687;SDS011;74908;42.040;21.322;2024-03-06T14:05:23;11.27;;;5.20;;
84687;SDS011;74908;42.040;21.322;2024-03-06T14:07:52;9.45;;;4.60;;
84687;SDS011;74908;42.040;21.322;2024-03-06T14:10:19;8.52;;;4.82;;
84687;SDS011;74908;42.040;21.322;2024-03-06T14:12:46;8.73;;;5.35;;
84687;SDS011;74908;42.040;21.322;2024-03-06T14:17:44;7.07;;;4.70;;
84687;SDS011;74908;42.040;21.322;2024-03-06T14:20:10;9.80;;;4.85;;
84687;SDS011;74908;42.040;21.322;2024-03-06T14:22:41;7.32;;;4.25;;
84687;SDS011;74908;42.040;21.322;2024-03-06T14:25:07;5.63;;;4.07;;
84687;SDS011;74908;42.040;21.322;2024-03-06T14:27:33;11.40;;;4.40;;
84687;SDS011;74908;42.040;21.322;2024-03-06T14:30:01;7.38;;;4.05;;
84687;SDS011;74908;42.040;21.322;2024-03-06T14:32:27;8.30;;;4.40;;